createdAt,value
2018-09-11T00:02:01.181Z,52.07
2018-09-11T00:04:28.845Z,52.06
2018-09-11T00:06:56.522Z,52.38
2018-09-11T00:09:24.244Z,52.19
2018-09-11T00:11:51.905Z,52.13
2018-09-11T00:14:19.608Z,52.29
2018-09-11T00:16:47.312Z,52.38
2018-09-11T00:19:15.032Z,52.76
2018-09-11T00:21:42.727Z,52.99
2018-09-11T00:24:10.451Z,53.44
2018-09-11T00:26:38.157Z,53.21
2018-09-11T00:29:05.930Z,53.39
2018-09-11T00:31:33.837Z,53.58
2018-09-11T00:34:01.689Z,52.87
2018-09-11T00:36:29.386Z,52.71
2018-09-11T00:38:57.091Z,53.40
2018-09-11T00:41:24.775Z,52.97
2018-09-11T00:43:52.605Z,54.05
2018-09-11T00:46:20.320Z,56.28
2018-09-11T00:48:48.061Z,55.44
2018-09-11T00:51:15.751Z,54.88
2018-09-11T00:53:43.453Z,53.95
2018-09-11T00:56:11.147Z,53.31
2018-09-11T00:58:38.846Z,53.20
2018-09-11T01:01:06.598Z,53.29
2018-09-11T01:03:34.258Z,53.37
2018-09-11T01:06:01.938Z,53.24
2018-09-11T01:08:29.682Z,54.37
2018-09-11T01:10:57.357Z,55.49
2018-09-11T01:13:25.026Z,54.64
2018-09-11T01:15:52.743Z,56.36
2018-09-11T01:18:20.416Z,58.24
2018-09-11T01:20:48.125Z,58.25
2018-09-11T01:23:15.830Z,58.62
2018-09-11T01:25:43.497Z,58.00
2018-09-11T01:28:11.154Z,58.31
2018-09-11T01:30:38.949Z,59.29
2018-09-11T01:33:06.646Z,59.56
2018-09-11T01:35:34.351Z,58.76
2018-09-11T01:38:02.080Z,59.36
2018-09-11T01:40:29.765Z,58.54
2018-09-11T01:42:57.434Z,58.13
2018-09-11T01:45:25.159Z,57.78
2018-09-11T01:47:52.825Z,58.30
2018-09-11T01:50:20.515Z,57.93
2018-09-11T01:52:48.217Z,59.82
2018-09-11T01:55:15.892Z,59.08
2018-09-11T01:57:43.563Z,59.50
2018-09-11T02:00:15.785Z,59.72
2018-09-11T02:02:43.491Z,59.19
2018-09-11T02:05:11.157Z,58.95
2018-09-11T02:07:39.122Z,58.37
2018-09-11T02:10:06.792Z,58.12
2018-09-11T02:12:34.461Z,59.24
2018-09-11T02:15:02.311Z,58.13
2018-09-11T02:17:30.157Z,58.38
2018-09-11T02:19:57.901Z,58.57
2018-09-11T02:22:25.624Z,58.61
2018-09-11T02:24:53.281Z,58.35
2018-09-11T02:27:20.929Z,56.63
2018-09-11T02:29:48.636Z,58.61
2018-09-11T02:32:16.390Z,59.17
2018-09-11T02:34:44.086Z,59.52
2018-09-11T02:37:11.902Z,59.80
2018-09-11T02:39:39.601Z,60.07
2018-09-11T02:42:07.286Z,59.48
2018-09-11T02:44:40.533Z,59.50
2018-09-11T02:47:08.655Z,59.44
2018-09-11T02:49:36.345Z,58.99
2018-09-11T02:52:04.201Z,59.20
2018-09-11T02:54:31.856Z,60.06
2018-09-11T02:56:59.529Z,60.42
2018-09-11T02:59:27.232Z,59.85
2018-09-11T03:01:54.938Z,60.81
2018-09-11T03:04:22.651Z,60.38
2018-09-11T03:06:50.358Z,59.58
2018-09-11T03:09:18.046Z,59.45
2018-09-11T03:11:45.723Z,58.98
2018-09-11T03:14:13.445Z,59.02
2018-09-11T03:16:41.138Z,59.50
2018-09-11T03:19:08.832Z,58.82
2018-09-11T03:21:36.526Z,60.00
2018-09-11T03:24:04.203Z,60.25
2018-09-11T03:26:31.890Z,60.05
2018-09-11T03:28:59.594Z,60.87
2018-09-11T03:31:27.259Z,61.25
2018-09-11T03:33:55.080Z,61.31
2018-09-11T03:36:22.785Z,62.05
2018-09-11T03:38:50.481Z,63.35
2018-09-11T03:41:18.171Z,62.65
2018-09-11T03:43:45.873Z,62.86
2018-09-11T03:46:13.538Z,63.53
2018-09-11T03:48:41.223Z,60.27
2018-09-11T03:51:08.943Z,60.55
2018-09-11T03:53:36.625Z,58.19
2018-09-11T03:56:04.294Z,58.54
2018-09-11T03:58:32.044Z,57.56
2018-09-11T04:00:59.751Z,57.11
2018-09-11T04:03:27.556Z,56.80
2018-09-11T04:05:55.270Z,56.37
2018-09-11T04:08:22.995Z,55.89
2018-09-11T04:10:50.687Z,54.77
2018-09-11T04:13:18.430Z,54.22
2018-09-11T04:15:46.112Z,53.90
2018-09-11T04:18:14.214Z,53.26
2018-09-11T04:20:41.919Z,51.06
2018-09-11T04:23:09.642Z,49.39
2018-09-11T04:25:37.336Z,49.07
2018-09-11T04:28:05.087Z,47.15
2018-09-11T04:30:32.821Z,46.40
2018-09-11T04:33:00.490Z,47.97
2018-09-11T04:35:28.219Z,48.06
2018-09-11T04:37:55.890Z,46.45
2018-09-11T04:40:23.553Z,43.31
2018-09-11T04:42:51.278Z,41.51
2018-09-11T04:45:18.962Z,41.33
2018-09-11T04:47:46.627Z,39.85
2018-09-11T04:50:14.355Z,36.88
2018-09-11T04:52:42.049Z,37.24
2018-09-11T04:55:09.775Z,35.40
2018-09-11T04:57:37.571Z,33.98
2018-09-11T05:00:05.334Z,35.51
2018-09-11T05:02:33.026Z,36.35
2018-09-11T05:05:00.754Z,35.09
2018-09-11T05:07:28.599Z,33.56
2018-09-11T05:09:56.298Z,31.49
2018-09-11T05:12:24.010Z,32.44
2018-09-11T05:14:51.721Z,32.35
2018-09-11T05:17:19.427Z,32.45
2018-09-11T05:19:47.150Z,31.59
2018-09-11T05:22:14.866Z,29.57
2018-09-11T05:24:42.558Z,32.24
2018-09-11T05:27:10.294Z,36.84
2018-09-11T05:29:37.974Z,39.66
2018-09-11T05:32:05.766Z,44.02
2018-09-11T05:34:33.474Z,43.73
2018-09-11T05:37:01.172Z,47.37
2018-09-11T05:39:28.855Z,46.51
2018-09-11T05:41:56.649Z,45.25
2018-09-11T05:44:24.342Z,44.76
2018-09-11T05:46:52.014Z,44.12
2018-09-11T05:49:19.727Z,42.82
2018-09-11T05:51:47.419Z,42.96
2018-09-11T05:54:15.221Z,44.00
2018-09-11T05:56:42.982Z,45.31
2018-09-11T05:59:10.682Z,44.01
2018-09-11T06:01:38.414Z,40.60
2018-09-11T06:04:06.230Z,37.99
2018-09-11T06:06:33.933Z,37.39
2018-09-11T06:09:01.612Z,36.98
2018-09-11T06:11:29.327Z,34.65
2018-09-11T06:13:57.014Z,33.87
2018-09-11T06:16:25.387Z,34.75
2018-09-11T06:18:53.085Z,35.69
2018-09-11T06:21:20.761Z,35.90
2018-09-11T06:23:48.466Z,34.47
2018-09-11T06:26:16.163Z,37.12
2018-09-11T06:28:43.863Z,38.86
2018-09-11T06:31:11.562Z,41.31
2018-09-11T06:33:39.251Z,40.54
2018-09-11T06:36:06.932Z,40.70
2018-09-11T06:38:34.633Z,40.50
2018-09-11T06:41:02.486Z,38.57
2018-09-11T06:43:30.202Z,39.40
2018-09-11T06:45:58.162Z,38.73
2018-09-11T06:48:25.929Z,39.90
2018-09-11T06:50:53.606Z,38.90
2018-09-11T06:53:22.120Z,39.31
2018-09-11T06:55:49.891Z,38.98
2018-09-11T06:58:17.590Z,38.05
2018-09-11T07:00:45.287Z,37.93
2018-09-11T07:03:13.011Z,38.97
2018-09-11T07:05:40.677Z,38.96
2018-09-11T07:08:08.374Z,38.06
2018-09-11T07:10:36.104Z,38.19
2018-09-11T07:13:03.795Z,36.27
2018-09-11T07:15:31.583Z,37.71
2018-09-11T07:17:59.333Z,38.03
2018-09-11T07:20:27.152Z,37.52
2018-09-11T07:22:54.734Z,35.43
2018-09-11T07:25:22.446Z,35.34
2018-09-11T07:27:50.118Z,34.94
2018-09-11T07:30:17.844Z,35.74
2018-09-11T07:32:45.521Z,34.53
2018-09-11T07:35:13.209Z,35.03
2018-09-11T07:37:40.897Z,35.88
2018-09-11T07:40:08.699Z,35.99
2018-09-11T07:42:36.383Z,36.38
2018-09-11T07:45:04.161Z,35.71
2018-09-11T07:47:31.880Z,35.93
2018-09-11T07:49:59.546Z,35.60
2018-09-11T07:52:27.242Z,35.32
2018-09-11T07:54:54.978Z,34.98
2018-09-11T07:57:22.719Z,34.36
2018-09-11T07:59:50.446Z,34.18
2018-09-11T08:02:18.186Z,35.70
2018-09-11T08:04:45.905Z,35.13
2018-09-11T08:07:13.609Z,34.88
2018-09-11T08:09:41.404Z,34.76
2018-09-11T08:12:09.152Z,35.29
2018-09-11T08:14:36.891Z,34.55
2018-09-11T08:17:04.744Z,34.95
2018-09-11T08:19:32.542Z,34.60
2018-09-11T08:22:00.249Z,34.13
2018-09-11T08:24:28.032Z,34.28
2018-09-11T08:26:55.734Z,33.22
2018-09-11T08:29:23.571Z,32.66
2018-09-11T08:31:51.280Z,33.63
2018-09-11T08:34:18.964Z,34.76
2018-09-11T08:36:46.839Z,34.78
2018-09-11T08:39:14.695Z,34.46
2018-09-11T08:41:42.451Z,33.83
2018-09-11T08:44:10.327Z,34.78
2018-09-11T08:46:38.241Z,35.07
2018-09-11T08:49:06.481Z,34.18
2018-09-11T08:51:34.280Z,33.46
2018-09-11T08:54:02.206Z,34.02
2018-09-11T08:56:30.046Z,32.52
2018-09-11T08:58:57.910Z,31.53
2018-09-11T09:01:25.745Z,32.61
2018-09-11T09:03:53.476Z,32.76
2018-09-11T09:06:21.138Z,32.27
2018-09-11T09:08:48.902Z,32.23
2018-09-11T09:11:16.695Z,32.35
2018-09-11T09:13:44.401Z,32.49
2018-09-11T09:16:12.223Z,32.53
2018-09-11T09:18:39.967Z,32.72
2018-09-11T09:21:07.644Z,32.44
2018-09-11T09:23:35.341Z,32.48
2018-09-11T09:26:03.054Z,32.37
2018-09-11T09:28:30.729Z,31.49
2018-09-11T09:30:58.450Z,31.69
2018-09-11T09:33:26.123Z,30.42
2018-09-11T09:35:53.807Z,31.96
2018-09-11T09:38:21.505Z,30.91
2018-09-11T09:40:49.204Z,29.31
2018-09-11T09:43:16.904Z,30.07
2018-09-11T09:45:44.615Z,29.56
2018-09-11T09:48:12.298Z,28.73
2018-09-11T09:50:40.039Z,30.15
2018-09-11T09:53:07.765Z,29.56
2018-09-11T09:55:35.431Z,30.22
2018-09-11T09:58:08.871Z,29.31
2018-09-11T10:00:42.060Z,28.65
2018-09-11T10:03:09.860Z,28.73
2018-09-11T10:05:37.595Z,29.50
2018-09-11T10:08:05.582Z,28.19
2018-09-11T10:10:33.283Z,28.35
2018-09-11T10:13:00.934Z,26.63
2018-09-11T10:15:28.602Z,27.99
2018-09-11T10:17:56.309Z,26.04
2018-09-11T10:20:24.024Z,26.15
2018-09-11T10:22:51.737Z,26.31
2018-09-11T10:25:19.453Z,24.63
2018-09-11T10:27:47.130Z,25.96
2018-09-11T10:30:14.830Z,27.82
2018-09-11T10:32:42.533Z,26.19
2018-09-11T10:35:10.244Z,26.26
2018-09-11T10:37:37.936Z,26.55
2018-09-11T10:40:05.684Z,26.86
2018-09-11T10:42:33.394Z,26.86
2018-09-11T10:45:01.139Z,26.49
2018-09-11T10:47:28.855Z,27.29
2018-09-11T10:49:56.602Z,27.60
2018-09-11T10:52:24.321Z,28.88
2018-09-11T10:54:52.037Z,28.24
2018-09-11T10:57:19.722Z,26.12
2018-09-11T10:59:47.395Z,24.72
2018-09-11T11:02:15.107Z,23.13
2018-09-11T11:04:42.910Z,23.21
2018-09-11T11:07:11.499Z,23.87
2018-09-11T11:09:39.236Z,24.15
2018-09-11T11:12:06.967Z,23.50
2018-09-11T11:14:34.719Z,23.94
2018-09-11T11:17:02.522Z,24.95
2018-09-11T11:19:30.230Z,24.26
2018-09-11T11:21:57.914Z,26.24
2018-09-11T11:24:25.601Z,25.41
2018-09-11T11:26:53.422Z,24.54
2018-09-11T11:29:21.087Z,25.91
2018-09-11T11:31:48.806Z,25.02
2018-09-11T11:34:16.535Z,25.45
2018-09-11T11:36:44.315Z,26.02
2018-09-11T11:39:12.282Z,25.02
2018-09-11T11:41:40.046Z,24.71
2018-09-11T11:44:07.896Z,25.47
2018-09-11T11:46:35.655Z,24.59
2018-09-11T11:49:03.358Z,24.81
2018-09-11T11:51:31.038Z,22.42
2018-09-11T11:53:58.745Z,23.08
2018-09-11T11:56:26.420Z,22.31
2018-09-11T11:58:54.085Z,23.91
2018-09-11T12:01:21.819Z,23.92
2018-09-11T12:03:49.466Z,23.89
2018-09-11T12:06:17.154Z,22.53
2018-09-11T12:08:44.854Z,22.04
2018-09-11T12:11:12.550Z,21.61
2018-09-11T12:13:40.262Z,22.40
2018-09-11T12:16:08.029Z,22.75
2018-09-11T12:18:35.691Z,24.04
2018-09-11T12:21:03.392Z,24.34
2018-09-11T12:23:31.065Z,24.11
2018-09-11T12:25:58.758Z,22.42
2018-09-11T12:28:26.480Z,23.92
2018-09-11T12:30:54.244Z,23.86
2018-09-11T12:33:21.901Z,23.42
2018-09-11T12:35:49.609Z,23.95
2018-09-11T12:38:17.385Z,23.16
2018-09-11T12:40:45.568Z,23.10
2018-09-11T12:43:13.286Z,22.37
2018-09-11T12:45:41.025Z,24.06
2018-09-11T12:48:09.251Z,22.95
2018-09-11T12:50:36.493Z,23.92
2018-09-11T12:53:04.222Z,23.60
2018-09-11T12:55:31.893Z,24.78
2018-09-11T12:57:59.562Z,24.91
2018-09-11T13:00:27.298Z,24.45
2018-09-11T13:02:54.972Z,25.25
2018-09-11T13:05:22.669Z,24.26
2018-09-11T13:07:50.369Z,25.25
2018-09-11T13:10:18.041Z,25.33
2018-09-11T13:12:45.752Z,25.15
2018-09-11T13:15:13.568Z,25.27
2018-09-11T13:17:41.165Z,25.83
2018-09-11T13:20:08.889Z,25.58
2018-09-11T13:22:36.649Z,25.77
2018-09-11T13:25:04.388Z,26.22
2018-09-11T13:27:32.149Z,27.25
2018-09-11T13:29:59.885Z,27.25
2018-09-11T13:32:27.660Z,27.87
2018-09-11T13:34:55.342Z,27.48
2018-09-11T13:37:23.081Z,26.95
2018-09-11T13:39:50.758Z,26.97
2018-09-11T13:42:18.448Z,25.92
2018-09-11T13:44:46.149Z,25.68
2018-09-11T13:47:13.908Z,24.91
2018-09-11T13:49:41.586Z,25.91
2018-09-11T13:52:09.319Z,25.81
2018-09-11T13:54:37.025Z,24.77
2018-09-11T13:57:04.730Z,26.22
2018-09-11T13:59:32.435Z,26.44
2018-09-11T14:02:00.153Z,26.17
2018-09-11T14:04:27.893Z,26.18
2018-09-11T14:06:55.634Z,26.34
2018-09-11T14:09:23.318Z,26.97
2018-09-11T14:11:51.071Z,26.37
2018-09-11T14:14:18.810Z,26.19
2018-09-11T14:16:46.549Z,25.76
2018-09-11T14:19:14.269Z,25.73
2018-09-11T14:21:42.016Z,26.09
2018-09-11T14:24:09.762Z,25.28
2018-09-11T14:26:37.472Z,24.96
2018-09-11T14:29:05.205Z,25.21
2018-09-11T14:31:32.936Z,26.02
2018-09-11T14:34:00.741Z,24.97
2018-09-11T14:36:28.521Z,25.22
2018-09-11T14:38:56.206Z,26.45
2018-09-11T14:41:23.906Z,24.96
2018-09-11T14:43:51.636Z,25.67
2018-09-11T14:46:19.360Z,24.17
2018-09-11T14:48:47.042Z,24.80
2018-09-11T14:51:14.726Z,22.77
2018-09-11T14:53:42.465Z,21.95
2018-09-11T14:56:10.174Z,23.49
2018-09-11T14:58:37.928Z,21.93
2018-09-11T15:01:05.812Z,22.33
2018-09-11T15:03:33.540Z,22.31
2018-09-11T15:06:01.284Z,23.25
2018-09-11T15:08:28.994Z,22.64
2018-09-11T15:10:56.725Z,22.54
2018-09-11T15:13:24.424Z,23.52
2018-09-11T15:15:52.255Z,22.21
2018-09-11T15:18:19.985Z,23.04
2018-09-11T15:20:47.701Z,22.85
2018-09-11T15:23:15.396Z,22.16
2018-09-11T15:25:43.089Z,23.61
2018-09-11T15:28:10.842Z,24.06
2018-09-11T15:30:38.535Z,24.28
2018-09-11T15:33:06.739Z,24.32
2018-09-11T15:35:34.475Z,24.36
2018-09-11T15:38:02.196Z,23.54
2018-09-11T15:40:29.902Z,23.68
2018-09-11T15:42:57.589Z,25.18
2018-09-11T15:45:25.328Z,25.83
2018-09-11T15:47:53.009Z,25.95
2018-09-11T15:50:20.775Z,25.61
2018-09-11T15:52:48.535Z,26.13
2018-09-11T15:55:16.254Z,26.68
2018-09-11T15:57:44.017Z,26.08
2018-09-11T16:00:11.680Z,26.47
2018-09-11T16:02:39.386Z,27.04
2018-09-11T16:05:07.148Z,28.58
2018-09-11T16:07:34.848Z,28.68
2018-09-11T16:10:02.570Z,29.54
2018-09-11T16:12:30.405Z,29.28
2018-09-11T16:14:58.189Z,29.49
2018-09-11T16:17:25.878Z,29.84
2018-09-11T16:19:53.629Z,30.48
2018-09-11T16:22:21.323Z,30.68
2018-09-11T16:24:49.025Z,30.98
2018-09-11T16:27:16.736Z,30.38
2018-09-11T16:29:44.418Z,30.98
2018-09-11T16:32:12.134Z,30.69
2018-09-11T16:34:39.909Z,31.74
2018-09-11T16:37:07.645Z,31.09
2018-09-11T16:39:35.367Z,32.47
2018-09-11T16:42:03.189Z,31.86
2018-09-11T16:44:30.885Z,34.04
2018-09-11T16:46:58.642Z,34.07
2018-09-11T16:49:26.356Z,35.51
2018-09-11T16:51:54.172Z,35.60
2018-09-11T16:54:21.863Z,36.02
2018-09-11T16:56:49.630Z,36.63
2018-09-11T16:59:17.309Z,37.07
2018-09-11T17:01:44.973Z,36.24
2018-09-11T17:04:12.706Z,35.64
2018-09-11T17:06:40.395Z,35.86
2018-09-11T17:09:08.853Z,35.76
2018-09-11T17:11:36.604Z,35.23
2018-09-11T17:14:04.369Z,35.04
2018-09-11T17:16:32.087Z,35.35
2018-09-11T17:18:59.803Z,35.19
2018-09-11T17:21:27.494Z,35.60
2018-09-11T17:23:55.225Z,35.49
2018-09-11T17:26:22.957Z,35.09
2018-09-11T17:28:51.108Z,35.68
2018-09-11T17:31:18.827Z,35.82
2018-09-11T17:33:46.694Z,36.54
2018-09-11T17:36:14.434Z,36.81
2018-09-11T17:38:42.190Z,37.03
2018-09-11T17:41:09.920Z,37.31
2018-09-11T17:43:37.626Z,36.79
2018-09-11T17:46:05.338Z,36.65
2018-09-11T17:48:33.111Z,35.64
2018-09-11T17:51:00.825Z,35.62
2018-09-11T17:53:28.577Z,35.55
2018-09-11T17:55:56.297Z,35.93
2018-09-11T17:58:24.028Z,35.05
2018-09-11T18:00:51.768Z,35.35
2018-09-11T18:03:19.509Z,35.07
2018-09-11T18:05:47.266Z,34.92
2018-09-11T18:08:15.033Z,34.45
2018-09-11T18:10:42.788Z,35.83
2018-09-11T18:13:10.551Z,35.57
2018-09-11T18:15:38.301Z,36.57
2018-09-11T18:18:06.022Z,36.25
2018-09-11T18:20:33.741Z,36.58
2018-09-11T18:23:01.395Z,37.08
2018-09-11T18:25:29.130Z,37.48
2018-09-11T18:27:56.842Z,39.66
2018-09-11T18:30:24.622Z,39.49
2018-09-11T18:32:52.397Z,40.74
2018-09-11T18:37:56.817Z,39.62
2018-09-11T18:40:24.523Z,40.04
2018-09-11T18:42:52.218Z,39.00
2018-09-11T18:45:20.046Z,38.17
2018-09-11T18:47:47.750Z,37.92
2018-09-11T18:50:15.444Z,37.80
2018-09-11T18:52:43.226Z,37.37
2018-09-11T18:55:10.958Z,37.84
2018-09-11T18:57:38.710Z,37.02
2018-09-11T19:00:06.737Z,35.44
2018-09-11T19:02:34.546Z,35.00
2018-09-11T19:05:02.247Z,35.06
2018-09-11T19:07:30.001Z,34.40
2018-09-11T19:09:57.670Z,34.17
2018-09-11T19:12:25.416Z,34.54
2018-09-11T19:14:53.117Z,34.97
2018-09-11T19:17:20.839Z,34.99
2018-09-11T19:19:48.564Z,35.21
2018-09-11T19:22:16.263Z,34.75
2018-09-11T19:24:44.255Z,36.50
2018-09-11T19:27:11.967Z,37.67
2018-09-11T19:29:39.732Z,38.65
2018-09-11T19:32:07.433Z,38.55
2018-09-11T19:34:35.204Z,38.41
2018-09-11T19:37:02.921Z,38.93
2018-09-11T19:39:30.621Z,39.18
2018-09-11T19:41:58.314Z,40.41
2018-09-11T19:44:26.084Z,41.64
2018-09-11T19:46:53.737Z,41.73
2018-09-11T19:49:21.428Z,41.49
2018-09-11T19:51:49.140Z,41.87
2018-09-11T19:54:16.830Z,41.68
2018-09-11T19:56:44.477Z,42.49
2018-09-11T19:59:12.209Z,43.66
2018-09-11T20:01:39.892Z,43.67
2018-09-11T20:04:07.564Z,43.71
2018-09-11T20:06:35.286Z,44.43
2018-09-11T20:09:03.495Z,44.78
2018-09-11T20:11:31.173Z,45.16
2018-09-11T20:13:58.882Z,45.70
2018-09-11T20:16:26.877Z,46.08
2018-09-11T20:18:54.655Z,45.76
2018-09-11T20:21:22.366Z,46.07
2018-09-11T20:23:50.075Z,46.59
2018-09-11T20:26:17.750Z,46.46
2018-09-11T20:28:45.450Z,45.07
2018-09-11T20:31:13.474Z,44.24
2018-09-11T20:33:41.535Z,44.57
2018-09-11T20:36:09.254Z,44.99
2018-09-11T20:38:37.007Z,44.95
2018-09-11T20:41:04.735Z,44.65
2018-09-11T20:43:32.546Z,44.38
2018-09-11T20:46:00.215Z,46.08
2018-09-11T20:48:27.971Z,45.75
2018-09-11T20:50:55.737Z,47.16
2018-09-11T20:53:23.424Z,48.82
2018-09-11T20:55:51.223Z,49.47
2018-09-11T20:58:18.958Z,49.84
2018-09-11T21:00:46.610Z,48.64
2018-09-11T21:03:14.300Z,48.57
2018-09-11T21:05:42.037Z,49.31
2018-09-11T21:10:36.789Z,48.65
2018-09-11T21:13:04.593Z,49.23
2018-09-11T21:15:32.334Z,49.38
2018-09-11T21:18:00.126Z,49.66
2018-09-11T21:20:27.909Z,50.59
2018-09-11T21:22:55.732Z,50.41
2018-09-11T21:25:23.475Z,50.40
2018-09-11T21:27:51.293Z,49.90
2018-09-11T21:30:19.050Z,50.83
2018-09-11T21:32:46.764Z,50.13
2018-09-11T21:35:14.500Z,49.45
2018-09-11T21:37:42.191Z,50.12
2018-09-11T21:40:09.904Z,50.53
2018-09-11T21:42:37.637Z,50.42
2018-09-11T21:45:05.423Z,50.33
2018-09-11T21:47:33.126Z,50.06
2018-09-11T21:50:00.900Z,50.41
2018-09-11T21:52:28.582Z,49.88
2018-09-11T21:54:56.278Z,49.83
2018-09-11T21:57:24.071Z,49.24
2018-09-11T21:59:51.788Z,49.42
2018-09-11T22:02:19.497Z,48.15
2018-09-11T22:04:47.231Z,48.38
2018-09-11T22:07:14.927Z,48.07
2018-09-11T22:09:42.596Z,47.77
2018-09-11T22:12:10.345Z,47.88
2018-09-11T22:14:38.034Z,48.31
2018-09-11T22:17:06.154Z,48.51
2018-09-11T22:19:33.858Z,47.79
2018-09-11T22:22:01.568Z,47.44
2018-09-11T22:24:29.262Z,47.03
2018-09-11T22:26:56.980Z,48.31
2018-09-11T22:29:24.646Z,47.77
2018-09-11T22:31:52.319Z,47.23
2018-09-11T22:34:20.140Z,46.71
2018-09-11T22:36:47.827Z,48.63
2018-09-11T22:39:15.494Z,50.20
2018-09-11T22:41:43.229Z,50.99
2018-09-11T22:44:10.897Z,51.66
2018-09-11T22:46:38.629Z,52.49
2018-09-11T22:49:06.377Z,53.45
2018-09-11T22:51:34.045Z,53.65
2018-09-11T22:54:01.750Z,53.28
2018-09-11T22:56:29.492Z,53.86
2018-09-11T22:58:57.153Z,53.75
2018-09-11T23:01:24.829Z,54.48
2018-09-11T23:03:52.571Z,54.49
2018-09-11T23:06:20.382Z,54.26
2018-09-11T23:08:48.070Z,55.43
2018-09-11T23:11:15.790Z,54.95
2018-09-11T23:13:43.467Z,55.68
2018-09-11T23:16:11.160Z,54.78
2018-09-11T23:18:38.895Z,56.67
2018-09-11T23:21:06.585Z,56.39
2018-09-11T23:23:34.259Z,56.77
2018-09-11T23:26:01.961Z,56.18
2018-09-11T23:28:29.653Z,56.25
2018-09-11T23:30:57.313Z,55.71
2018-09-11T23:33:25.039Z,55.37
2018-09-11T23:35:52.733Z,56.68
2018-09-11T23:38:20.418Z,56.61
2018-09-11T23:40:48.118Z,56.52
2018-09-11T23:43:15.839Z,57.38
2018-09-11T23:45:43.510Z,57.27
2018-09-11T23:48:11.252Z,57.50
2018-09-11T23:50:38.924Z,57.45
2018-09-11T23:53:06.656Z,57.08
2018-09-11T23:55:34.390Z,57.51
2018-09-11T23:58:02.067Z,57.95
